Time;durP1;ratioP1;P1;durP2;ratioP2;P2;SDS_P1;SDS_P2;PMS_P1;PMS_P2;Temp;Humidity;BMP_temperature;BMP_pressure;BME280_temperature;BME280_humidity;BME280_pressure;Samples;Min_cycle;Max_cycle;Signal;HPM_P1;HPM_P2
2023/01/02 00:01:14;;;;;;;4.07;1.93;;;;;;;12.04;57.94;95734.34;4995201;28;20195;-83
2023/01/02 00:03:39;;;;;;;4.77;1.90;;;;;;;12.02;57.84;95728.47;4995218;28;20226;-83
2023/01/02 00:06:05;;;;;;;4.20;2.20;;;;;;;12.04;57.93;95728.31;5011023;28;20194;-84
2023/01/02 00:08:31;;;;;;;4.60;2.00;;;;;;;12.06;57.92;95718.56;5004922;28;20211;-83
2023/01/02 00:10:56;;;;;;;3.63;1.93;;;;;;;12.11;57.65;95724.97;4995785;28;20214;-84
2023/01/02 00:13:21;;;;;;;7.20;2.00;;;;;;;12.04;57.98;95726.53;5009939;28;20179;-82
2023/01/02 00:15:47;;;;;;;3.73;2.03;;;;;;;12.09;57.96;95728.66;5027804;28;20191;-83
2023/01/02 00:18:12;;;;;;;4.30;2.10;;;;;;;12.02;58.51;95730.28;4996740;28;20207;-84
2023/01/02 00:20:37;;;;;;;3.13;2.10;;;;;;;12.00;58.68;95724.38;5013591;28;20202;-84
2023/01/02 00:23:03;;;;;;;3.53;2.00;;;;;;;12.01;58.63;95732.03;4996416;28;20186;-83
2023/01/02 00:25:28;;;;;;;4.40;2.47;;;;;;;11.92;59.33;95722.53;5012036;28;20198;-83
2023/01/02 00:27:55;;;;;;;4.73;2.03;;;;;;;11.98;58.72;95719.31;5012756;28;20219;-83
2023/01/02 00:30:20;;;;;;;2.97;1.77;;;;;;;11.88;58.78;95721.22;4996997;28;20217;-83
2023/01/02 00:32:46;;;;;;;3.60;1.83;;;;;;;11.98;58.18;95719.31;4997374;28;20298;-84
2023/01/02 00:35:11;;;;;;;4.00;1.90;;;;;;;12.00;58.04;95714.78;5013004;28;20591;-83
2023/01/02 00:37:36;;;;;;;3.63;2.00;;;;;;;12.05;58.05;95712.56;5013080;28;20215;-83
2023/01/02 00:40:02;;;;;;;5.70;1.60;;;;;;;12.04;57.55;95716.13;5012497;28;20205;-83
2023/01/02 00:42:27;;;;;;;3.30;1.77;;;;;;;12.01;57.36;95718.19;5004321;28;20183;-84
2023/01/02 00:44:53;;;;;;;7.50;1.97;;;;;;;12.08;57.13;95714.03;5008215;28;20564;-83
2023/01/02 00:47:18;;;;;;;5.73;2.00;;;;;;;12.10;57.20;95714.69;5009898;28;20218;-84
2023/01/02 00:49:43;;;;;;;4.40;2.20;;;;;;;12.12;56.97;95710.97;5014950;28;20713;-84
2023/01/02 00:52:08;;;;;;;4.03;2.03;;;;;;;12.16;56.96;95711.47;5012569;28;20191;-83
2023/01/02 00:54:34;;;;;;;5.47;2.00;;;;;;;12.09;57.78;95710.44;5011901;28;20187;-83
2023/01/02 00:56:59;;;;;;;4.37;2.07;;;;;;;12.01;58.52;95713.00;4993126;28;20238;-82
2023/01/02 00:59:24;;;;;;;4.47;1.90;;;;;;;11.89;59.17;95715.03;5011722;28;20213;-84
2023/01/02 01:01:50;;;;;;;2.80;1.93;;;;;;;11.91;59.12;95719.09;5013385;28;20187;-83
2023/01/02 01:04:15;;;;;;;5.13;2.10;;;;;;;11.90;59.17;95724.47;5020965;28;20183;-83
2023/01/02 01:06:40;;;;;;;5.13;2.37;;;;;;;11.84;59.46;95720.72;5020408;28;20179;-84
2023/01/02 01:09:05;;;;;;;5.17;3.10;;;;;;;11.77;59.59;95719.63;5002150;28;20187;-84
2023/01/02 01:11:31;;;;;;;3.87;1.83;;;;;;;11.78;59.67;95718.66;5001976;28;20222;-84
2023/01/02 01:13:56;;;;;;;4.20;2.03;;;;;;;11.74;59.08;95714.72;5018627;28;20712;-84
2023/01/02 01:16:21;;;;;;;3.73;1.80;;;;;;;11.77;58.61;95698.81;5000667;28;20193;-83
2023/01/02 01:18:47;;;;;;;5.17;1.70;;;;;;;11.85;57.85;95698.09;4999480;28;20211;-84
2023/01/02 01:21:14;;;;;;;5.67;2.07;;;;;;;11.95;57.72;95705.81;4996404;28;20329;-83
2023/01/02 01:23:40;;;;;;;2.43;1.77;;;;;;;11.99;57.44;95718.34;4994876;28;20561;-83
2023/01/02 01:26:08;;;;;;;4.80;1.90;;;;;;;11.90;57.84;95701.06;4993706;28;20184;-83
2023/01/02 01:28:34;;;;;;;6.80;1.90;;;;;;;12.00;57.29;95704.38;5014042;28;20219;-83
2023/01/02 01:31:14;;;;;;;5.73;1.80;;;;;;;12.05;57.67;95704.75;5012766;28;20698;-84
2023/01/02 01:33:40;;;;;;;4.93;1.70;;;;;;;12.00;57.27;95699.16;5045335;28;20750;-83
2023/01/02 01:36:14;;;;;;;2.60;1.70;;;;;;;12.10;57.07;95706.88;5011852;28;20686;-84
2023/01/02 01:38:39;;;;;;;5.30;2.20;;;;;;;12.15;56.76;95705.47;5012075;28;20207;-83
2023/01/02 01:41:05;;;;;;;4.00;1.77;;;;;;;12.15;56.96;95700.25;4993268;28;20603;-84
2023/01/02 01:43:50;;;;;;;4.20;1.80;;;;;;;12.26;56.38;95700.97;4995420;28;20198;-83
2023/01/02 01:46:18;;;;;;;5.80;1.90;;;;;;;12.15;56.23;95695.03;5012299;28;20296;-83
2023/01/02 01:48:43;;;;;;;3.60;1.70;;;;;;;12.12;56.47;95697.97;5017791;28;20581;-83
2023/01/02 01:51:09;;;;;;;4.27;2.00;;;;;;;12.22;56.09;95702.25;5012437;28;20222;-83
2023/01/02 01:53:34;;;;;;;3.70;2.00;;;;;;;12.10;56.53;95696.47;5011036;28;20187;-83
2023/01/02 01:56:03;;;;;;;10.00;2.37;;;;;;;12.23;56.23;95696.88;4995161;28;20536;-84
2023/01/02 01:58:31;;;;;;;4.37;1.90;;;;;;;12.19;56.24;95691.19;4995983;28;20211;-84
2023/01/02 02:00:57;;;;;;;7.67;1.73;;;;;;;12.22;56.05;95691.84;5012421;28;20183;-83
2023/01/02 02:03:25;;;;;;;4.57;2.07;;;;;;;12.16;55.88;95682.84;4994789;28;20187;-83
2023/01/02 02:05:51;;;;;;;6.53;2.47;;;;;;;12.18;55.77;95686.09;5046057;28;20278;-83
2023/01/02 02:08:36;;;;;;;4.97;1.90;;;;;;;12.15;56.44;95678.59;5030101;28;20219;-83
2023/01/02 02:11:02;;;;;;;5.63;2.10;;;;;;;12.15;56.36;95678.59;5020322;28;20225;-84
2023/01/02 02:13:29;;;;;;;6.50;2.30;;;;;;;12.18;56.99;95679.09;5017057;28;20195;-83
2023/01/02 02:16:13;;;;;;;3.43;2.00;;;;;;;12.12;56.83;95674.53;5016349;28;20183;-83
2023/01/02 02:19:04;;;;;;;5.77;2.57;;;;;;;12.11;57.18;95675.50;5017755;28;20203;-83
2023/01/02 02:21:41;;;;;;;2.93;2.00;;;;;;;12.00;57.29;95677.53;5000979;28;20537;-84
2023/01/02 02:24:30;;;;;;;3.63;2.07;;;;;;;12.03;57.06;95667.66;5000370;28;20190;-85
2023/01/02 02:27:01;;;;;;;3.90;1.90;;;;;;;11.99;57.93;95674.13;4999868;28;20278;-83
2023/01/02 02:30:01;;;;;;;5.70;2.00;;;;;;;12.07;57.95;95668.97;5033474;28;20195;-83
2023/01/02 02:32:49;;;;;;;6.00;2.23;;;;;;;11.82;58.48;95665.38;5014462;28;20580;-82
2023/01/02 02:35:36;;;;;;;4.17;2.30;;;;;;;11.87;58.97;95667.53;5013174;28;20560;-82
2023/01/02 02:38:16;;;;;;;4.77;1.80;;;;;;;11.85;59.63;95672.09;5048025;28;20203;-82
2023/01/02 02:40:49;;;;;;;5.00;2.00;;;;;;;11.75;59.92;95666.09;5014053;28;20171;-82
2023/01/02 02:43:27;;;;;;;2.80;1.87;;;;;;;11.56;60.82;95669.69;5013476;28;20552;-83
2023/01/02 02:46:01;;;;;;;2.87;2.37;;;;;;;11.66;60.66;95667.00;5045614;28;20194;-83
2023/01/02 02:48:28;;;;;;;5.13;2.30;;;;;;;11.68;60.50;95659.91;5019583;28;20210;-83
2023/01/02 02:51:00;;;;;;;3.97;2.57;;;;;;;11.63;61.04;95658.53;4998423;28;20303;-82
2023/01/02 02:53:30;;;;;;;5.73;2.27;;;;;;;11.59;60.73;95659.03;5013069;28;20308;-84
2023/01/02 02:55:58;;;;;;;4.13;2.00;;;;;;;11.58;60.87;95650.41;5014382;28;20191;-82
2023/01/02 02:58:27;;;;;;;3.50;2.17;;;;;;;11.59;61.26;95653.81;5011675;28;20207;-83
2023/01/02 03:01:01;;;;;;;4.83;2.30;;;;;;;11.56;61.18;95659.28;4997180;28;20559;-82
2023/01/02 03:03:27;;;;;;;5.57;2.40;;;;;;;11.52;60.92;95657.97;5011865;28;20670;-84
2023/01/02 03:06:17;;;;;;;5.90;2.20;;;;;;;11.63;60.78;95655.94;5013655;28;20206;-84
2023/01/02 03:08:50;;;;;;;4.20;2.17;;;;;;;11.59;60.94;95659.03;5029690;28;20765;-84
2023/01/02 03:11:16;;;;;;;6.40;2.33;;;;;;;11.63;60.50;95661.16;4993718;28;20885;-84
2023/01/02 03:13:57;;;;;;;4.10;2.33;;;;;;;11.45;61.18;95651.75;4998528;28;20191;-83
2023/01/02 03:16:29;;;;;;;6.07;2.20;;;;;;;11.54;60.98;95656.84;5031219;28;20195;-84
2023/01/02 03:19:00;;;;;;;3.73;2.10;;;;;;;11.56;60.72;95652.31;5015325;28;20734;-84
2023/01/02 03:21:39;;;;;;;5.57;2.27;;;;;;;11.58;60.53;95649.59;5016980;28;20238;-83
2023/01/02 03:24:06;;;;;;;4.63;1.87;;;;;;;11.57;60.05;95651.38;4996722;28;20191;-84
2023/01/02 03:26:33;;;;;;;3.40;2.10;;;;;;;11.59;60.01;95654.63;5014255;28;20282;-83
2023/01/02 03:29:25;;;;;;;3.13;2.00;;;;;;;11.64;59.36;95654.16;5013097;28;20211;-82
2023/01/02 03:31:52;;;;;;;6.07;2.20;;;;;;;11.55;59.78;95658.47;5014460;28;20199;-83
2023/01/02 03:34:21;;;;;;;3.20;1.93;;;;;;;11.49;59.64;95661.72;5014233;28;20191;-82
2023/01/02 03:36:49;;;;;;;4.43;2.10;;;;;;;11.49;59.83;95661.72;5015129;28;20191;-83
2023/01/02 03:39:17;;;;;;;4.30;2.00;;;;;;;11.56;59.53;95654.09;4997514;28;20198;-83
2023/01/02 03:41:46;;;;;;;6.17;2.23;;;;;;;11.52;59.34;95653.59;5013880;28;20190;-83
2023/01/02 03:44:14;;;;;;;5.87;2.07;;;;;;;11.48;58.66;95656.63;5012794;28;20203;-83
2023/01/02 03:46:44;;;;;;;7.30;2.10;;;;;;;11.67;58.11;95656.47;4996958;28;20195;-84
2023/01/02 03:49:22;;;;;;;4.33;2.00;;;;;;;11.64;58.38;95662.78;5015585;28;20189;-83
2023/01/02 03:51:48;;;;;;;3.97;1.70;;;;;;;11.70;57.72;95663.16;5018295;28;20560;-83
2023/01/02 03:54:14;;;;;;;5.10;1.83;;;;;;;11.73;57.58;95665.44;5022166;28;20198;-82
2023/01/02 03:56:42;;;;;;;5.00;1.90;;;;;;;11.77;57.01;95653.78;5031213;28;20184;-82
2023/01/02 03:59:25;;;;;;;3.40;2.03;;;;;;;11.76;56.89;95649.56;5019928;28;20183;-82
2023/01/02 04:02:12;;;;;;;3.93;1.80;;;;;;;11.77;56.62;95652.00;5034952;28;20187;-83
2023/01/02 04:04:49;;;;;;;1.93;1.60;;;;;;;11.83;56.94;95656.59;4998137;28;20210;-83
2023/01/02 04:07:21;;;;;;;5.47;1.90;;;;;;;11.74;57.37;95654.06;5010930;28;20257;-82
2023/01/02 04:09:47;;;;;;;3.67;1.93;;;;;;;11.64;58.10;95652.38;5012330;28;20211;-83
2023/01/02 04:12:15;;;;;;;3.93;1.90;;;;;;;11.68;57.61;95654.69;5012412;28;20187;-83
2023/01/02 04:14:47;;;;;;;5.17;2.27;;;;;;;11.66;57.61;95641.84;4993445;28;20188;-83
2023/01/02 04:17:15;;;;;;;3.00;1.80;;;;;;;11.65;57.19;95653.19;4994208;28;20199;-83
2023/01/02 04:19:45;;;;;;;5.30;1.97;;;;;;;11.61;56.68;95647.47;5009368;28;20184;-83
2023/01/02 04:22:29;;;;;;;5.77;2.30;;;;;;;11.60;56.43;95643.25;4996014;28;20191;-83
2023/01/02 04:25:12;;;;;;;5.37;2.17;;;;;;;11.72;55.42;95635.19;5010489;28;20211;-82
2023/01/02 04:27:43;;;;;;;5.47;1.80;;;;;;;11.73;55.28;95634.22;5022692;28;20219;-82
2023/01/02 04:30:09;;;;;;;3.80;1.80;;;;;;;11.70;55.81;95637.16;5003995;28;20217;-82
2023/01/02 04:32:41;;;;;;;5.43;1.90;;;;;;;11.63;57.11;95627.34;4993773;28;20252;-83
2023/01/02 04:35:13;;;;;;;6.53;1.70;;;;;;;11.58;57.37;95631.38;4994696;28;20179;-84
2023/01/02 04:37:41;;;;;;;4.37;2.20;;;;;;;11.57;57.67;95630.56;4994602;28;20210;-82
2023/01/02 04:40:18;;;;;;;3.57;1.90;;;;;;;11.51;57.26;95628.56;5004184;28;20194;-82
2023/01/02 04:42:43;;;;;;;5.63;1.90;;;;;;;11.44;56.90;95626.72;5006527;28;20187;-82
2023/01/02 04:45:09;;;;;;;4.73;2.03;;;;;;;11.45;56.39;95625.75;5002366;28;20266;-82
2023/01/02 04:47:34;;;;;;;4.77;1.70;;;;;;;11.46;56.00;95622.16;4997884;28;20230;-83
2023/01/02 04:49:59;;;;;;;4.27;1.53;;;;;;;11.51;55.81;95619.94;5013919;28;20203;-84
2023/01/02 04:52:25;;;;;;;5.30;1.97;;;;;;;11.48;56.48;95630.63;4997745;28;20198;-83
2023/01/02 04:54:50;;;;;;;2.63;1.73;;;;;;;11.42;56.21;95628.66;5014456;28;20214;-83
2023/01/02 04:57:15;;;;;;;3.17;2.17;;;;;;;11.49;56.47;95633.09;5014588;28;20222;-84
2023/01/02 04:59:40;;;;;;;5.97;2.00;;;;;;;11.41;56.47;95630.44;5013465;28;20179;-83
2023/01/02 05:02:06;;;;;;;5.47;1.93;;;;;;;11.34;55.64;95624.19;4995611;28;20191;-82
2023/01/02 05:04:34;;;;;;;4.10;1.80;;;;;;;11.44;55.50;95624.91;5012187;28;20194;-83
2023/01/02 05:06:59;;;;;;;4.80;2.60;;;;;;;11.45;55.31;95618.75;5011287;28;20648;-84
2023/01/02 05:09:24;;;;;;;5.67;1.77;;;;;;;11.50;55.12;95626.94;4995143;28;20252;-84
2023/01/02 05:11:50;;;;;;;4.70;1.83;;;;;;;11.50;54.62;95624.31;4995765;28;20265;-84
2023/01/02 05:14:15;;;;;;;3.17;1.80;;;;;;;11.51;54.75;95632.94;5012110;28;20195;-83
2023/01/02 05:16:40;;;;;;;2.10;1.70;;;;;;;11.54;54.48;95646.44;5005878;28;20242;-82
2023/01/02 05:19:06;;;;;;;5.57;2.37;;;;;;;11.49;54.26;95638.31;5012743;28;20191;-82
2023/01/02 05:24:15;;;;;;;5.27;2.27;;;;;;;11.52;53.50;95638.00;5012288;28;20218;-82
2023/01/02 05:26:40;;;;;;;5.07;2.30;;;;;;;11.51;53.69;95643.34;5010939;28;20183;-82
2023/01/02 05:29:05;;;;;;;4.60;1.97;;;;;;;11.51;54.06;95648.53;5012319;28;20238;-82
2023/01/02 05:31:31;;;;;;;2.73;1.50;;;;;;;11.47;53.45;95640.22;5014321;28;20257;-82
2023/01/02 05:33:57;;;;;;;5.20;1.70;;;;;;;11.46;52.54;95648.97;5019859;28;20674;-82
2023/01/02 05:36:24;;;;;;;3.13;1.67;;;;;;;11.55;51.50;95648.09;5027790;28;20186;-82
2023/01/02 05:38:49;;;;;;;3.90;1.70;;;;;;;11.54;50.21;95653.44;5016761;28;20234;-84
2023/01/02 05:41:15;;;;;;;4.43;1.73;;;;;;;11.69;48.88;95645.91;4999907;28;20187;-83
2023/01/02 05:43:40;;;;;;;3.27;1.50;;;;;;;11.75;48.26;95647.88;5000624;28;20183;-82
2023/01/02 05:46:14;;;;;;;4.10;1.67;;;;;;;11.85;46.80;95638.25;5003178;28;20673;-83
2023/01/02 05:48:39;;;;;;;6.17;1.50;;;;;;;12.01;45.39;95638.34;5019401;28;20215;-82
2023/01/02 05:51:06;;;;;;;2.37;1.50;;;;;;;12.10;44.14;95647.84;5018652;28;20210;-82
2023/01/02 05:53:31;;;;;;;5.43;1.37;;;;;;;12.23;43.80;95644.81;5016800;28;20198;-83
2023/01/02 05:56:11;;;;;;;2.53;1.30;;;;;;;12.33;43.12;95652.50;5017751;28;20191;-83
2023/01/02 05:58:38;;;;;;;3.30;1.47;;;;;;;12.36;42.99;95644.38;5050360;28;20206;-83
2023/01/02 06:01:05;;;;;;;5.47;1.50;;;;;;;12.40;42.80;95651.72;5017996;28;20206;-83
2023/01/02 06:03:30;;;;;;;4.50;1.33;;;;;;;12.47;43.26;95654.53;5017331;28;20187;-84
2023/01/02 06:05:56;;;;;;;3.90;1.40;;;;;;;12.53;43.15;95653.88;5016624;28;20213;-83
2023/01/02 06:08:21;;;;;;;2.97;1.17;;;;;;;12.53;42.45;95661.69;5017727;28;20253;-83
2023/01/02 06:10:50;;;;;;;6.30;1.30;;;;;;;12.54;42.65;95659.91;5018241;28;20586;-83
2023/01/02 06:13:15;;;;;;;4.03;1.30;;;;;;;12.50;42.56;95659.41;5017466;28;20183;-82
2023/01/02 06:15:40;;;;;;;4.00;2.10;;;;;;;12.48;43.07;95658.75;5015373;28;20183;-83
2023/01/02 06:18:06;;;;;;;2.87;2.60;;;;;;;12.43;43.48;95661.81;5015610;28;20210;-83
2023/01/02 06:20:31;;;;;;;3.23;2.30;;;;;;;12.39;44.01;95667.50;5032712;28;20183;-84
2023/01/02 06:22:56;;;;;;;2.73;1.90;;;;;;;12.26;44.05;95660.09;5016213;28;20201;-82
2023/01/02 06:25:22;;;;;;;2.00;1.70;;;;;;;12.11;43.79;95659.06;4998072;28;20195;-83
2023/01/02 06:27:47;;;;;;;2.27;1.50;;;;;;;12.16;44.50;95670.63;5014915;28;20258;-83
2023/01/02 06:30:12;;;;;;;5.43;1.83;;;;;;;12.11;43.92;95665.09;4999277;28;20628;-83
2023/01/02 06:32:37;;;;;;;7.57;1.80;;;;;;;12.16;44.08;95670.63;5008131;28;20191;-83
2023/01/02 06:35:03;;;;;;;5.67;1.50;;;;;;;12.10;44.30;95668.66;5014481;28;20253;-83
2023/01/02 06:37:28;;;;;;;5.27;1.30;;;;;;;12.08;43.46;95667.97;4997912;28;20211;-82
2023/01/02 06:39:54;;;;;;;3.70;1.40;;;;;;;12.14;42.04;95669.97;5015188;28;20189;-83
2023/01/02 06:42:19;;;;;;;4.50;1.30;;;;;;;12.07;42.57;95678.56;4998414;28;20191;-82
2023/01/02 06:44:44;;;;;;;2.80;1.43;;;;;;;12.05;42.43;95677.91;4998935;28;20187;-83
2023/01/02 06:47:09;;;;;;;2.30;1.27;;;;;;;12.18;40.11;95683.50;4999520;28;20229;-83
2023/01/02 06:49:35;;;;;;;2.73;1.53;;;;;;;12.30;38.11;95687.50;5015172;28;20194;-83
2023/01/02 06:52:00;;;;;;;3.30;1.20;;;;;;;12.39;37.33;95690.94;5014553;28;20191;-83
2023/01/02 06:54:25;;;;;;;4.27;1.37;;;;;;;12.57;36.39;95699.50;5015625;28;20187;-83
2023/01/02 06:56:51;;;;;;;11.60;6.40;;;;;;;12.59;36.71;95700.16;5014345;28;20195;-82
2023/01/02 06:59:16;;;;;;;7.83;4.07;;;;;;;12.69;36.19;95703.44;5014822;28;20194;-82
2023/01/02 07:01:41;;;;;;;3.13;2.00;;;;;;;12.66;36.61;95706.38;4999103;28;20183;-83
2023/01/02 07:04:14;;;;;;;3.07;1.47;;;;;;;12.58;37.42;95713.34;5015623;28;20190;-83
2023/01/02 07:06:39;;;;;;;2.47;1.27;;;;;;;12.58;36.70;95705.53;5011203;28;20330;-83
2023/01/02 07:09:04;;;;;;;4.23;1.40;;;;;;;12.61;36.01;95710.41;5052636;28;20207;-83
2023/01/02 07:11:29;;;;;;;5.10;2.13;;;;;;;12.57;36.84;95707.31;5027268;28;20222;-81
2023/01/02 07:13:55;;;;;;;2.50;1.57;;;;;;;12.39;38.61;95715.22;5027302;28;20183;-83
2023/01/02 07:16:21;;;;;;;5.07;1.60;;;;;;;12.35;41.25;95713.88;5004767;28;20611;-83
2023/01/02 07:18:47;;;;;;;3.70;2.13;;;;;;;12.24;43.65;95710.72;5017745;28;20199;-82
2023/01/02 07:21:14;;;;;;;4.50;2.10;;;;;;;11.95;45.46;95709.22;5021126;28;20206;-83
2023/01/02 07:23:40;;;;;;;4.13;1.87;;;;;;;11.89;46.50;95715.03;5019415;28;20187;-82
2023/01/02 07:26:06;;;;;;;4.53;1.90;;;;;;;11.64;47.64;95714.00;5022411;28;20191;-83
2023/01/02 07:28:32;;;;;;;5.07;2.73;;;;;;;11.59;48.04;95717.06;5009063;28;20214;-83
2023/01/02 07:30:59;;;;;;;4.10;1.83;;;;;;;11.52;48.17;95723.00;5021847;28;20210;-82
2023/01/02 07:33:26;;;;;;;3.93;1.60;;;;;;;11.45;48.84;95721.94;5020169;28;20191;-84
2023/01/02 07:35:56;;;;;;;4.57;1.67;;;;;;;11.49;48.11;95731.91;5006104;28;20187;-84
2023/01/02 07:38:21;;;;;;;4.73;1.67;;;;;;;11.25;48.49;95729.91;5053299;28;20211;-82
2023/01/02 07:40:46;;;;;;;3.73;1.60;;;;;;;11.37;48.80;95725.28;5004963;28;20179;-84
2023/01/02 07:43:12;;;;;;;4.47;1.47;;;;;;;11.28;49.74;95724.38;5023132;28;20194;-83
2023/01/02 07:45:37;;;;;;;4.30;1.97;;;;;;;11.32;49.14;95727.53;5003763;28;20195;-81
2023/01/02 07:50:37;;;;;;;5.23;2.17;;;;;;;11.29;50.17;95733.00;5016927;23;20241;-81
2023/01/02 07:53:03;;;;;;;4.37;2.00;;;;;;;11.34;50.18;95736.81;5002364;28;20202;-85
2023/01/02 07:55:28;;;;;;;2.07;1.47;;;;;;;11.28;50.55;95733.97;4998790;28;20221;-87
2023/01/02 07:57:56;;;;;;;3.17;1.80;;;;;;;11.18;50.38;95736.63;4997169;28;20223;-90
2023/01/02 08:00:22;;;;;;;6.17;2.20;;;;;;;11.05;50.65;95739.59;4986081;28;20203;-85
2023/01/02 08:02:52;;;;;;;4.83;2.03;;;;;;;11.24;50.40;95745.66;4980711;28;20188;-83
2023/01/02 08:05:17;;;;;;;4.00;1.77;;;;;;;11.25;50.07;95755.88;5003513;28;20241;-83
2023/01/02 08:07:43;;;;;;;3.93;1.73;;;;;;;11.33;50.22;95747.34;4995635;28;20215;-83
2023/01/02 08:10:09;;;;;;;4.50;1.93;;;;;;;11.31;50.47;95750.13;5017442;28;20620;-83
2023/01/02 08:12:34;;;;;;;3.50;2.47;;;;;;;11.28;50.48;95762.56;4999314;28;20202;-83
2023/01/02 08:15:01;;;;;;;6.43;2.20;;;;;;;11.29;50.03;95752.03;4988370;28;20720;-84
2023/01/02 08:17:26;;;;;;;3.90;1.70;;;;;;;11.37;50.00;95766.88;4984411;28;20211;-85
2023/01/02 08:19:51;;;;;;;4.30;2.00;;;;;;;11.38;50.33;95762.50;4983866;28;20198;-85
2023/01/02 08:22:16;;;;;;;3.40;1.63;;;;;;;11.46;50.47;95762.59;5005745;28;20186;-85
2023/01/02 08:24:42;;;;;;;3.70;1.97;;;;;;;11.44;51.08;95764.53;4987674;28;20183;-85
2023/01/02 08:27:07;;;;;;;4.57;1.73;;;;;;;11.44;51.44;95773.16;5000168;28;20204;-85
2023/01/02 08:29:32;;;;;;;5.03;2.30;;;;;;;11.40;51.63;95779.63;5001560;28;20182;-86
2023/01/02 08:31:58;;;;;;;4.50;1.60;;;;;;;11.42;50.54;95776.88;5008335;28;20207;-85
2023/01/02 08:34:23;;;;;;;3.63;1.70;;;;;;;11.44;51.58;95780.94;4990032;28;20195;-85
2023/01/02 08:36:49;;;;;;;4.50;1.80;;;;;;;11.49;52.29;95770.13;4994262;28;20179;-86
2023/01/02 08:39:14;;;;;;;4.47;1.80;;;;;;;11.46;52.25;95784.22;5004115;28;20183;-86
2023/01/02 08:41:39;;;;;;;4.03;1.70;;;;;;;11.40;53.31;95773.59;4990250;28;20192;-85
2023/01/02 08:44:05;;;;;;;5.17;2.07;;;;;;;11.40;53.87;95779.63;4997017;28;20196;-85
2023/01/02 08:46:33;;;;;;;4.07;1.73;;;;;;;11.28;53.97;95775.56;5000947;28;20203;-85
2023/01/02 08:48:58;;;;;;;9.83;5.40;;;;;;;11.49;51.29;95783.94;4990100;28;20185;-86
2023/01/02 08:51:24;;;;;;;6.80;2.83;;;;;;;11.78;46.89;95781.09;4979036;28;20239;-86
2023/01/02 08:53:49;;;;;;;8.37;3.40;;;;;;;11.93;46.86;95781.44;4997802;28;20628;-84
2023/01/02 08:56:24;;;;;;;8.63;2.00;;;;;;;12.16;44.51;95793.00;4991933;28;20187;-84
2023/01/02 08:59:00;;;;;;;3.67;1.60;;;;;;;12.26;46.08;95795.50;4984027;28;20646;-84
2023/01/02 09:01:26;;;;;;;4.30;1.77;;;;;;;12.64;42.91;95785.69;4998711;28;20218;-86
2023/01/02 09:03:52;;;;;;;4.83;2.17;;;;;;;12.93;42.79;95798.38;4992936;28;20234;-84
2023/01/02 09:06:18;;;;;;;9.93;4.90;;;;;;;13.04;43.98;95808.50;4992900;28;20651;-86
2023/01/02 09:08:43;;;;;;;6.40;2.37;;;;;;;13.29;43.22;95807.66;5007404;28;21216;-85
2023/01/02 09:11:14;;;;;;;4.00;1.27;;;;;;;13.54;40.85;95813.78;4986879;28;20207;-84
2023/01/02 09:13:40;;;;;;;4.20;2.27;;;;;;;13.79;41.07;95814.66;4996790;28;20191;-84
2023/01/02 09:16:06;;;;;;;6.20;2.50;;;;;;;13.83;45.35;95815.13;5009551;28;20191;-83
2023/01/02 09:18:31;;;;;;;4.50;2.47;;;;;;;13.66;48.77;95824.72;5016146;28;20257;-84
2023/01/02 09:20:56;;;;;;;5.13;2.40;;;;;;;13.56;49.37;95829.28;4992623;28;20192;-85
2023/01/02 09:23:22;;;;;;;4.10;2.50;;;;;;;13.40;49.70;95831.81;5005047;28;20535;-83
2023/01/02 09:25:47;;;;;;;5.30;4.50;;;;;;;13.05;50.53;95836.22;4984533;28;20250;-84
2023/01/02 09:28:12;;;;;;;5.63;3.17;;;;;;;13.05;50.75;95838.81;5012830;28;20208;-84
2023/01/02 09:30:37;;;;;;;5.80;3.50;;;;;;;13.05;50.90;95837.03;4989958;28;20262;-85
2023/01/02 09:33:04;;;;;;;9.13;4.07;;;;;;;12.79;51.50;95849.25;4984564;28;20184;-85
2023/01/02 09:35:29;;;;;;;7.47;3.73;;;;;;;12.69;51.87;95851.16;4982407;28;20264;-85
2023/01/02 09:37:54;;;;;;;4.63;2.50;;;;;;;12.84;52.39;95854.03;4989570;28;20289;-83
2023/01/02 09:40:20;;;;;;;4.63;2.13;;;;;;;12.68;53.23;95859.94;4987466;28;20585;-84
2023/01/02 09:42:47;;;;;;;3.90;2.17;;;;;;;12.61;53.77;95864.94;5012054;28;20242;-84
2023/01/02 09:45:12;;;;;;;5.63;2.47;;;;;;;12.32;55.15;95873.03;4999717;28;20195;-85
2023/01/02 09:47:38;;;;;;;6.40;2.40;;;;;;;12.47;55.14;95874.13;4993513;28;20705;-84
2023/01/02 09:50:06;;;;;;;11.53;6.10;;;;;;;12.25;56.62;95873.78;5001316;28;20223;-85
2023/01/02 09:52:34;;;;;;;5.73;3.13;;;;;;;12.32;56.31;95877.41;4993062;28;20238;-84
2023/01/02 09:55:00;;;;;;;5.60;2.10;;;;;;;12.40;56.41;95873.09;4986550;28;20193;-85
2023/01/02 09:57:52;;;;;;;7.53;2.33;;;;;;;12.28;55.41;95891.69;5005704;28;20211;-89
2023/01/02 10:00:20;;;;;;;3.20;2.20;;;;;;;12.21;55.72;95867.25;4988985;28;20555;-82
2023/01/02 10:03:10;;;;;;;6.27;2.20;;;;;;;12.24;55.47;95883.38;4997656;28;20180;-85
2023/01/02 10:06:02;;;;;;;7.13;2.33;;;;;;;12.40;55.56;95887.91;5004399;28;20179;-83
2023/01/02 10:08:51;;;;;;;5.97;2.00;;;;;;;12.37;56.48;95889.03;4997625;28;20207;-82
2023/01/02 10:11:30;;;;;;;8.40;2.93;;;;;;;12.60;55.51;95891.97;4996376;28;20210;-82
2023/01/02 10:14:13;;;;;;;7.37;3.63;;;;;;;12.72;53.29;95887.31;5003772;28;20659;-81
2023/01/02 10:16:42;;;;;;;8.67;3.03;;;;;;;13.11;48.15;95887.75;4994112;28;20191;-81
2023/01/02 10:19:24;;;;;;;6.53;2.50;;;;;;;13.37;45.39;95892.16;4996424;28;20229;-84
2023/01/02 10:21:52;;;;;;;8.87;2.43;;;;;;;13.66;44.72;95903.00;5004444;28;20179;-85
2023/01/02 10:24:40;;;;;;;6.75;2.00;;;;;;;13.73;43.27;95905.81;4985076;28;20544;-84
2023/01/02 10:27:11;;;;;;;7.17;1.80;;;;;;;13.98;43.49;95896.25;4975684;28;20214;-85
2023/01/02 10:29:59;;;;;;;5.83;1.80;;;;;;;14.11;42.43;95891.38;4988587;28;20195;-85
2023/01/02 10:32:26;;;;;;;5.40;1.93;;;;;;;14.05;43.32;95898.09;4994470;28;20657;-86
2023/01/02 10:35:08;;;;;;;6.50;2.00;;;;;;;14.36;42.57;95889.63;4988426;28;20501;-85
2023/01/02 10:37:34;;;;;;;6.70;2.00;;;;;;;14.59;42.91;95895.06;5021497;28;20211;-85
2023/01/02 10:40:00;;;;;;;10.17;2.07;;;;;;;14.49;42.11;95879.53;5016256;28;20201;-84
2023/01/02 10:42:25;;;;;;;7.20;2.20;;;;;;;14.84;42.60;95894.06;5020445;28;20217;-83
2023/01/02 10:44:51;;;;;;;9.68;2.53;;;;;;;14.86;41.75;95889.47;5014165;28;20428;-83
2023/01/02 10:47:23;;;;;;;5.43;2.53;;;;;;;15.17;42.11;95891.38;5013482;28;20198;-83
2023/01/02 10:49:51;;;;;;;8.90;2.70;;;;;;;15.15;41.34;95893.34;4976033;28;20203;-82
2023/01/02 10:52:38;;;;;;;12.50;2.60;;;;;;;15.12;41.82;95891.88;4997474;28;20683;-84
2023/01/02 10:55:04;;;;;;;6.97;2.20;;;;;;;14.96;40.22;95892.72;4988132;28;20188;-84
2023/01/02 10:57:42;;;;;;;10.77;2.27;;;;;;;15.09;41.09;95894.00;4989773;28;20574;-84
2023/01/02 11:00:16;;;;;;;8.07;2.07;;;;;;;15.19;41.07;95903.28;4994391;28;20269;-84
2023/01/02 11:02:42;;;;;;;7.67;2.10;;;;;;;14.98;41.64;95888.13;4999363;28;20182;-84
2023/01/02 11:05:18;;;;;;;9.33;2.50;;;;;;;15.15;41.38;95893.34;5004488;28;20659;-84
2023/01/02 11:07:47;;;;;;;9.50;2.37;;;;;;;15.26;42.02;95898.22;5011787;28;20232;-84
2023/01/02 11:10:22;;;;;;;8.80;2.10;;;;;;;15.23;41.80;95906.41;5012605;28;20750;-83
2023/01/02 11:12:48;;;;;;;6.03;2.70;;;;;;;15.33;42.32;95896.56;4982284;28;20190;-82
2023/01/02 11:15:16;;;;;;;9.07;2.40;;;;;;;15.58;41.26;95898.09;4986235;28;20226;-82
2023/01/02 11:17:43;;;;;;;9.63;3.07;;;;;;;15.58;41.05;95895.50;4975595;28;20662;-83
2023/01/02 11:20:26;;;;;;;8.70;2.40;;;;;;;15.50;41.07;95885.06;4997152;28;20195;-84
2023/01/02 11:22:54;;;;;;;9.80;2.60;;;;;;;15.30;41.63;95894.28;4985587;28;20187;-83
2023/01/02 11:25:35;;;;;;;5.13;2.10;;;;;;;15.01;42.29;95893.03;4995745;28;20188;-83
2023/01/02 11:28:01;;;;;;;6.70;1.97;;;;;;;15.10;42.48;95899.06;5002489;28;20208;-84
2023/01/02 11:30:37;;;;;;;5.47;2.13;;;;;;;15.15;42.59;95906.41;4989096;28;20207;-84
2023/01/02 11:33:10;;;;;;;6.13;2.17;;;;;;;15.28;42.97;95901.47;4984476;28;20204;-84
2023/01/02 11:35:38;;;;;;;10.00;2.20;;;;;;;15.00;42.96;95901.84;5000638;28;20190;-84
2023/01/02 11:38:04;;;;;;;11.57;1.93;;;;;;;14.95;42.96;95896.31;4991300;28;20211;-84
2023/01/02 11:40:31;;;;;;;7.43;2.60;;;;;;;14.80;42.89;95895.34;5007186;28;20606;-82
2023/01/02 11:45:45;;;;;;;10.50;2.47;;;;;;;14.93;42.79;95906.16;5000633;28;20549;-84
2023/01/02 11:48:20;;;;;;;7.57;2.47;;;;;;;14.76;42.97;95898.47;5004008;28;20207;-85
2023/01/02 11:50:46;;;;;;;6.77;2.07;;;;;;;14.85;43.28;95890.47;4983660;28;20226;-84